sensor_id;sensor_type;location;lat;lon;timestamp;P1;durP1;ratioP1;P2;durP2;ratioP2
7607;SDS011;3845;48.120;11.534;2022-08-16T00:00:09;1.90;;;1.60;;
7607;SDS011;3845;48.120;11.534;2022-08-16T00:02:36;2.03;;;1.60;;
7607;SDS011;3845;48.120;11.534;2022-08-16T00:05:03;1.83;;;1.73;;
7607;SDS011;3845;48.120;11.534;2022-08-16T00:07:30;1.97;;;1.80;;
7607;SDS011;3845;48.120;11.534;2022-08-16T00:09:56;1.67;;;1.57;;
7607;SDS011;3845;48.120;11.534;2022-08-16T00:12:22;1.90;;;1.70;;
7607;SDS011;3845;48.120;11.534;2022-08-16T00:14:48;1.80;;;1.70;;
7607;SDS011;3845;48.120;11.534;2022-08-16T00:17:13;2.20;;;2.00;;
7607;SDS011;3845;48.120;11.534;2022-08-16T00:19:39;1.70;;;1.60;;
7607;SDS011;3845;48.120;11.534;2022-08-16T00:22:04;2.00;;;1.80;;
7607;SDS011;3845;48.120;11.534;2022-08-16T00:24:29;2.03;;;1.70;;
7607;SDS011;3845;48.120;11.534;2022-08-16T00:26:55;1.90;;;1.70;;
7607;SDS011;3845;48.120;11.534;2022-08-16T00:29:21;1.80;;;1.70;;
7607;SDS011;3845;48.120;11.534;2022-08-16T00:31:48;1.60;;;1.50;;
7607;SDS011;3845;48.120;11.534;2022-08-16T00:34:14;2.10;;;1.80;;
7607;SDS011;3845;48.120;11.534;2022-08-16T00:36:40;2.07;;;1.77;;
7607;SDS011;3845;48.120;11.534;2022-08-16T00:39:05;1.80;;;1.70;;
7607;SDS011;3845;48.120;11.534;2022-08-16T00:41:31;1.70;;;1.60;;
7607;SDS011;3845;48.120;11.534;2022-08-16T00:43:58;2.00;;;1.70;;
7607;SDS011;3845;48.120;11.534;2022-08-16T00:46:30;1.77;;;1.63;;
7607;SDS011;3845;48.120;11.534;2022-08-16T00:48:58;1.70;;;1.60;;
7607;SDS011;3845;48.120;11.534;2022-08-16T00:51:25;1.90;;;1.70;;
7607;SDS011;3845;48.120;11.534;2022-08-16T00:53:51;2.00;;;1.80;;
7607;SDS011;3845;48.120;11.534;2022-08-16T00:56:18;1.93;;;1.73;;
7607;SDS011;3845;48.120;11.534;2022-08-16T00:58:46;2.30;;;1.53;;
7607;SDS011;3845;48.120;11.534;2022-08-16T01:01:12;1.70;;;1.60;;
7607;SDS011;3845;48.120;11.534;2022-08-16T01:03:39;1.80;;;1.70;;
7607;SDS011;3845;48.120;11.534;2022-08-16T01:06:06;2.10;;;1.60;;
7607;SDS011;3845;48.120;11.534;2022-08-16T01:08:33;2.07;;;1.87;;
7607;SDS011;3845;48.120;11.534;2022-08-16T01:10:59;2.10;;;1.90;;
7607;SDS011;3845;48.120;11.534;2022-08-16T01:13:25;1.67;;;1.57;;
7607;SDS011;3845;48.120;11.534;2022-08-16T01:15:58;2.10;;;1.83;;
7607;SDS011;3845;48.120;11.534;2022-08-16T01:18:27;1.97;;;1.60;;
7607;SDS011;3845;48.120;11.534;2022-08-16T01:20:59;2.07;;;1.70;;
7607;SDS011;3845;48.120;11.534;2022-08-16T01:26:24;2.27;;;1.70;;
7607;SDS011;3845;48.120;11.534;2022-08-16T01:28:54;1.90;;;1.70;;
7607;SDS011;3845;48.120;11.534;2022-08-16T01:31:21;2.20;;;1.80;;
7607;SDS011;3845;48.120;11.534;2022-08-16T01:33:47;1.83;;;1.70;;
7607;SDS011;3845;48.120;11.534;2022-08-16T01:36:13;1.70;;;1.60;;
7607;SDS011;3845;48.120;11.534;2022-08-16T01:38:40;1.67;;;1.57;;
7607;SDS011;3845;48.120;11.534;2022-08-16T01:41:09;1.80;;;1.70;;
7607;SDS011;3845;48.120;11.534;2022-08-16T01:43:37;1.80;;;1.70;;
7607;SDS011;3845;48.120;11.534;2022-08-16T01:46:05;1.70;;;1.60;;
7607;SDS011;3845;48.120;11.534;2022-08-16T01:48:34;1.70;;;1.47;;
7607;SDS011;3845;48.120;11.534;2022-08-16T01:51:00;1.70;;;1.60;;
7607;SDS011;3845;48.120;11.534;2022-08-16T01:53:27;1.70;;;1.60;;
7607;SDS011;3845;48.120;11.534;2022-08-16T01:55:52;1.50;;;1.40;;
7607;SDS011;3845;48.120;11.534;2022-08-16T01:58:18;2.80;;;1.60;;
7607;SDS011;3845;48.120;11.534;2022-08-16T02:00:44;2.60;;;1.47;;
7607;SDS011;3845;48.120;11.534;2022-08-16T02:03:10;1.60;;;1.50;;
7607;SDS011;3845;48.120;11.534;2022-08-16T02:05:35;1.50;;;1.40;;
7607;SDS011;3845;48.120;11.534;2022-08-16T02:08:01;1.50;;;1.40;;
7607;SDS011;3845;48.120;11.534;2022-08-16T02:10:29;2.60;;;1.67;;
7607;SDS011;3845;48.120;11.534;2022-08-16T02:12:55;2.03;;;1.43;;
7607;SDS011;3845;48.120;11.534;2022-08-16T02:15:22;1.60;;;1.50;;
7607;SDS011;3845;48.120;11.534;2022-08-16T02:17:49;1.57;;;1.47;;
7607;SDS011;3845;48.120;11.534;2022-08-16T02:20:14;1.60;;;1.50;;
7607;SDS011;3845;48.120;11.534;2022-08-16T02:22:40;2.80;;;1.50;;
7607;SDS011;3845;48.120;11.534;2022-08-16T02:25:09;1.60;;;1.50;;
7607;SDS011;3845;48.120;11.534;2022-08-16T02:27:39;1.67;;;1.50;;
7607;SDS011;3845;48.120;11.534;2022-08-16T02:30:06;3.00;;;1.40;;
7607;SDS011;3845;48.120;11.534;2022-08-16T02:32:38;1.53;;;1.43;;
7607;SDS011;3845;48.120;11.534;2022-08-16T02:35:04;1.60;;;1.50;;
7607;SDS011;3845;48.120;11.534;2022-08-16T02:37:29;1.60;;;1.50;;
7607;SDS011;3845;48.120;11.534;2022-08-16T02:39:55;2.30;;;1.37;;
7607;SDS011;3845;48.120;11.534;2022-08-16T02:42:20;2.00;;;1.60;;
7607;SDS011;3845;48.120;11.534;2022-08-16T02:44:45;1.60;;;1.50;;
7607;SDS011;3845;48.120;11.534;2022-08-16T02:47:11;1.50;;;1.40;;
7607;SDS011;3845;48.120;11.534;2022-08-16T02:49:37;1.50;;;1.40;;
7607;SDS011;3845;48.120;11.534;2022-08-16T02:52:02;1.63;;;1.53;;
7607;SDS011;3845;48.120;11.534;2022-08-16T02:54:27;1.60;;;1.50;;
7607;SDS011;3845;48.120;11.534;2022-08-16T02:56:53;2.37;;;1.30;;
7607;SDS011;3845;48.120;11.534;2022-08-16T02:59:18;1.63;;;1.50;;
7607;SDS011;3845;48.120;11.534;2022-08-16T03:01:43;1.60;;;1.40;;
7607;SDS011;3845;48.120;11.534;2022-08-16T03:04:09;1.77;;;1.40;;
7607;SDS011;3845;48.120;11.534;2022-08-16T03:06:34;1.50;;;1.40;;
7607;SDS011;3845;48.120;11.534;2022-08-16T03:09:00;1.50;;;1.40;;
7607;SDS011;3845;48.120;11.534;2022-08-16T03:11:25;1.60;;;1.50;;
7607;SDS011;3845;48.120;11.534;2022-08-16T03:13:52;1.60;;;1.50;;
7607;SDS011;3845;48.120;11.534;2022-08-16T03:16:19;1.60;;;1.50;;
7607;SDS011;3845;48.120;11.534;2022-08-16T03:18:45;1.33;;;1.23;;
7607;SDS011;3845;48.120;11.534;2022-08-16T03:21:10;1.53;;;1.43;;
7607;SDS011;3845;48.120;11.534;2022-08-16T03:23:37;1.40;;;1.30;;
7607;SDS011;3845;48.120;11.534;2022-08-16T03:26:02;2.00;;;1.40;;
7607;SDS011;3845;48.120;11.534;2022-08-16T03:28:28;1.73;;;1.50;;
7607;SDS011;3845;48.120;11.534;2022-08-16T03:30:53;1.67;;;1.57;;
7607;SDS011;3845;48.120;11.534;2022-08-16T03:33:19;1.50;;;1.40;;
7607;SDS011;3845;48.120;11.534;2022-08-16T03:35:44;1.60;;;1.50;;
7607;SDS011;3845;48.120;11.534;2022-08-16T03:38:13;1.40;;;1.30;;
7607;SDS011;3845;48.120;11.534;2022-08-16T03:40:40;1.97;;;1.47;;
7607;SDS011;3845;48.120;11.534;2022-08-16T03:43:07;1.70;;;1.60;;
7607;SDS011;3845;48.120;11.534;2022-08-16T03:45:34;1.80;;;1.63;;
7607;SDS011;3845;48.120;11.534;2022-08-16T03:48:00;1.80;;;1.70;;
7607;SDS011;3845;48.120;11.534;2022-08-16T03:50:26;1.63;;;1.53;;
7607;SDS011;3845;48.120;11.534;2022-08-16T03:52:52;1.60;;;1.50;;
7607;SDS011;3845;48.120;11.534;2022-08-16T03:55:18;1.50;;;1.40;;
7607;SDS011;3845;48.120;11.534;2022-08-16T03:57:43;1.60;;;1.50;;
7607;SDS011;3845;48.120;11.534;2022-08-16T04:00:15;2.13;;;1.73;;
7607;SDS011;3845;48.120;11.534;2022-08-16T04:02:42;2.37;;;1.50;;
7607;SDS011;3845;48.120;11.534;2022-08-16T04:05:08;1.80;;;1.60;;
7607;SDS011;3845;48.120;11.534;2022-08-16T04:07:35;1.40;;;1.30;;
7607;SDS011;3845;48.120;11.534;2022-08-16T04:10:00;1.53;;;1.43;;
7607;SDS011;3845;48.120;11.534;2022-08-16T04:12:26;1.67;;;1.57;;
7607;SDS011;3845;48.120;11.534;2022-08-16T04:14:51;2.00;;;1.80;;
7607;SDS011;3845;48.120;11.534;2022-08-16T04:17:16;2.37;;;1.70;;
7607;SDS011;3845;48.120;11.534;2022-08-16T04:19:42;1.97;;;1.73;;
7607;SDS011;3845;48.120;11.534;2022-08-16T04:22:11;1.80;;;1.70;;
7607;SDS011;3845;48.120;11.534;2022-08-16T04:24:36;1.80;;;1.70;;
7607;SDS011;3845;48.120;11.534;2022-08-16T04:27:02;1.80;;;1.60;;
7607;SDS011;3845;48.120;11.534;2022-08-16T04:29:28;1.80;;;1.70;;
7607;SDS011;3845;48.120;11.534;2022-08-16T04:31:54;1.93;;;1.83;;
7607;SDS011;3845;48.120;11.534;2022-08-16T04:34:20;1.60;;;1.50;;
7607;SDS011;3845;48.120;11.534;2022-08-16T04:36:46;1.73;;;1.60;;
7607;SDS011;3845;48.120;11.534;2022-08-16T04:39:11;1.90;;;1.70;;
7607;SDS011;3845;48.120;11.534;2022-08-16T04:41:37;1.90;;;1.70;;
7607;SDS011;3845;48.120;11.534;2022-08-16T04:44:02;2.37;;;1.80;;
7607;SDS011;3845;48.120;11.534;2022-08-16T04:46:28;2.07;;;1.70;;
7607;SDS011;3845;48.120;11.534;2022-08-16T04:48:53;3.00;;;1.87;;
7607;SDS011;3845;48.120;11.534;2022-08-16T04:51:18;2.23;;;1.90;;
7607;SDS011;3845;48.120;11.534;2022-08-16T04:53:44;2.20;;;1.90;;
7607;SDS011;3845;48.120;11.534;2022-08-16T04:56:09;1.70;;;1.60;;
7607;SDS011;3845;48.120;11.534;2022-08-16T04:58:35;1.90;;;1.80;;
7607;SDS011;3845;48.120;11.534;2022-08-16T05:01:00;2.13;;;1.93;;
7607;SDS011;3845;48.120;11.534;2022-08-16T05:03:26;2.53;;;1.90;;
7607;SDS011;3845;48.120;11.534;2022-08-16T05:05:51;1.90;;;1.70;;
7607;SDS011;3845;48.120;11.534;2022-08-16T05:08:17;2.13;;;1.93;;
7607;SDS011;3845;48.120;11.534;2022-08-16T05:10:42;2.50;;;2.00;;
7607;SDS011;3845;48.120;11.534;2022-08-16T05:13:07;2.20;;;1.90;;
7607;SDS011;3845;48.120;11.534;2022-08-16T05:15:33;2.00;;;1.80;;
7607;SDS011;3845;48.120;11.534;2022-08-16T05:17:59;2.00;;;1.80;;
7607;SDS011;3845;48.120;11.534;2022-08-16T05:20:25;3.10;;;1.87;;
7607;SDS011;3845;48.120;11.534;2022-08-16T05:22:51;3.60;;;1.90;;
7607;SDS011;3845;48.120;11.534;2022-08-16T05:25:17;2.47;;;2.00;;
7607;SDS011;3845;48.120;11.534;2022-08-16T05:27:42;3.13;;;2.10;;
7607;SDS011;3845;48.120;11.534;2022-08-16T05:30:09;2.20;;;2.00;;
7607;SDS011;3845;48.120;11.534;2022-08-16T05:32:37;2.57;;;2.30;;
7607;SDS011;3845;48.120;11.534;2022-08-16T05:35:03;2.20;;;2.00;;
7607;SDS011;3845;48.120;11.534;2022-08-16T05:37:31;2.20;;;2.00;;
7607;SDS011;3845;48.120;11.534;2022-08-16T05:39:57;2.20;;;2.00;;
7607;SDS011;3845;48.120;11.534;2022-08-16T05:42:23;2.20;;;2.00;;
7607;SDS011;3845;48.120;11.534;2022-08-16T05:44:48;2.20;;;2.00;;
7607;SDS011;3845;48.120;11.534;2022-08-16T05:47:13;2.63;;;1.90;;
7607;SDS011;3845;48.120;11.534;2022-08-16T05:49:39;2.10;;;1.90;;
7607;SDS011;3845;48.120;11.534;2022-08-16T05:52:04;3.93;;;2.40;;
7607;SDS011;3845;48.120;11.534;2022-08-16T05:54:29;2.97;;;2.63;;
7607;SDS011;3845;48.120;11.534;2022-08-16T05:56:55;4.03;;;2.77;;
7607;SDS011;3845;48.120;11.534;2022-08-16T05:59:21;3.20;;;2.50;;
7607;SDS011;3845;48.120;11.534;2022-08-16T06:01:47;3.00;;;2.40;;
7607;SDS011;3845;48.120;11.534;2022-08-16T06:04:15;2.50;;;2.30;;
7607;SDS011;3845;48.120;11.534;2022-08-16T06:06:41;4.33;;;2.43;;
7607;SDS011;3845;48.120;11.534;2022-08-16T06:09:07;3.27;;;2.40;;
7607;SDS011;3845;48.120;11.534;2022-08-16T06:11:32;2.10;;;1.90;;
7607;SDS011;3845;48.120;11.534;2022-08-16T06:13:58;2.10;;;1.90;;
7607;SDS011;3845;48.120;11.534;2022-08-16T06:16:24;3.00;;;1.90;;
7607;SDS011;3845;48.120;11.534;2022-08-16T06:18:49;3.27;;;1.90;;
7607;SDS011;3845;48.120;11.534;2022-08-16T06:21:14;2.73;;;1.80;;
7607;SDS011;3845;48.120;11.534;2022-08-16T06:23:40;2.97;;;1.90;;
7607;SDS011;3845;48.120;11.534;2022-08-16T06:26:06;3.20;;;1.70;;
7607;SDS011;3845;48.120;11.534;2022-08-16T06:28:32;2.37;;;1.80;;
7607;SDS011;3845;48.120;11.534;2022-08-16T06:30:58;1.80;;;1.70;;
7607;SDS011;3845;48.120;11.534;2022-08-16T06:33:23;1.90;;;1.60;;
7607;SDS011;3845;48.120;11.534;2022-08-16T06:35:50;2.75;;;1.80;;
7607;SDS011;3845;48.120;11.534;2022-08-16T06:38:16;2.78;;;2.15;;
7607;SDS011;3845;48.120;11.534;2022-08-16T06:40:42;5.18;;;4.63;;
7607;SDS011;3845;48.120;11.534;2022-08-16T06:43:07;7.00;;;5.28;;
7607;SDS011;3845;48.120;11.534;2022-08-16T06:45:32;4.93;;;4.50;;
7607;SDS011;3845;48.120;11.534;2022-08-16T06:48:01;4.13;;;3.47;;
7607;SDS011;3845;48.120;11.534;2022-08-16T06:50:28;3.40;;;3.10;;
7607;SDS011;3845;48.120;11.534;2022-08-16T06:52:54;2.87;;;2.60;;
7607;SDS011;3845;48.120;11.534;2022-08-16T06:55:19;4.47;;;2.60;;
7607;SDS011;3845;48.120;11.534;2022-08-16T06:57:44;3.50;;;2.40;;
7607;SDS011;3845;48.120;11.534;2022-08-16T07:00:10;2.70;;;2.10;;
7607;SDS011;3845;48.120;11.534;2022-08-16T07:02:38;2.10;;;1.90;;
7607;SDS011;3845;48.120;11.534;2022-08-16T07:05:04;3.20;;;2.20;;
7607;SDS011;3845;48.120;11.534;2022-08-16T07:07:31;2.23;;;2.03;;
7607;SDS011;3845;48.120;11.534;2022-08-16T07:09:57;3.23;;;2.30;;
7607;SDS011;3845;48.120;11.534;2022-08-16T07:12:22;2.43;;;2.23;;
7607;SDS011;3845;48.120;11.534;2022-08-16T07:14:47;2.37;;;2.17;;
7607;SDS011;3845;48.120;11.534;2022-08-16T07:17:13;2.93;;;1.90;;
7607;SDS011;3845;48.120;11.534;2022-08-16T07:19:39;2.13;;;1.93;;
7607;SDS011;3845;48.120;11.534;2022-08-16T07:22:05;2.50;;;2.10;;
7607;SDS011;3845;48.120;11.534;2022-08-16T07:24:30;3.27;;;2.03;;
7607;SDS011;3845;48.120;11.534;2022-08-16T07:26:56;2.53;;;2.10;;
7607;SDS011;3845;48.120;11.534;2022-08-16T07:29:22;3.57;;;2.50;;
7607;SDS011;3845;48.120;11.534;2022-08-16T07:31:47;3.50;;;2.47;;
7607;SDS011;3845;48.120;11.534;2022-08-16T07:34:12;2.63;;;2.30;;
7607;SDS011;3845;48.120;11.534;2022-08-16T07:36:38;2.50;;;2.30;;
7607;SDS011;3845;48.120;11.534;2022-08-16T07:39:03;3.00;;;2.30;;
7607;SDS011;3845;48.120;11.534;2022-08-16T07:41:29;2.23;;;2.00;;
7607;SDS011;3845;48.120;11.534;2022-08-16T07:43:54;3.50;;;2.30;;
7607;SDS011;3845;48.120;11.534;2022-08-16T07:46:20;2.57;;;2.37;;
7607;SDS011;3845;48.120;11.534;2022-08-16T07:48:45;2.50;;;2.30;;
7607;SDS011;3845;48.120;11.534;2022-08-16T07:51:11;2.20;;;2.00;;
7607;SDS011;3845;48.120;11.534;2022-08-16T07:53:36;3.97;;;2.17;;
7607;SDS011;3845;48.120;11.534;2022-08-16T07:56:02;2.93;;;2.00;;
7607;SDS011;3845;48.120;11.534;2022-08-16T07:58:28;2.13;;;1.93;;
7607;SDS011;3845;48.120;11.534;2022-08-16T08:00:53;2.13;;;1.80;;
7607;SDS011;3845;48.120;11.534;2022-08-16T08:03:19;2.30;;;2.10;;
7607;SDS011;3845;48.120;11.534;2022-08-16T08:05:44;2.93;;;1.80;;
7607;SDS011;3845;48.120;11.534;2022-08-16T08:08:10;2.27;;;2.07;;
7607;SDS011;3845;48.120;11.534;2022-08-16T08:10:35;4.60;;;4.20;;
7607;SDS011;3845;48.120;11.534;2022-08-16T08:13:01;4.80;;;4.17;;
7607;SDS011;3845;48.120;11.534;2022-08-16T08:15:26;4.20;;;3.80;;
7607;SDS011;3845;48.120;11.534;2022-08-16T08:17:53;4.57;;;4.07;;
7607;SDS011;3845;48.120;11.534;2022-08-16T08:20:19;3.13;;;2.93;;
7607;SDS011;3845;48.120;11.534;2022-08-16T08:22:46;3.33;;;2.50;;
7607;SDS011;3845;48.120;11.534;2022-08-16T08:25:12;2.60;;;2.40;;
7607;SDS011;3845;48.120;11.534;2022-08-16T08:27:38;2.67;;;2.40;;
7607;SDS011;3845;48.120;11.534;2022-08-16T08:30:04;4.13;;;3.10;;
7607;SDS011;3845;48.120;11.534;2022-08-16T08:32:30;2.80;;;2.50;;
7607;SDS011;3845;48.120;11.534;2022-08-16T08:34:55;5.33;;;2.60;;
7607;SDS011;3845;48.120;11.534;2022-08-16T08:37:23;3.83;;;3.13;;
7607;SDS011;3845;48.120;11.534;2022-08-16T08:39:49;3.70;;;3.40;;
7607;SDS011;3845;48.120;11.534;2022-08-16T08:42:15;3.50;;;3.20;;
7607;SDS011;3845;48.120;11.534;2022-08-16T08:44:40;3.87;;;3.40;;
7607;SDS011;3845;48.120;11.534;2022-08-16T08:47:05;3.27;;;2.97;;
7607;SDS011;3845;48.120;11.534;2022-08-16T08:49:31;2.77;;;2.57;;
7607;SDS011;3845;48.120;11.534;2022-08-16T08:51:57;2.80;;;2.50;;
7607;SDS011;3845;48.120;11.534;2022-08-16T08:54:22;4.10;;;3.53;;
7607;SDS011;3845;48.120;11.534;2022-08-16T08:56:49;4.30;;;3.10;;
7607;SDS011;3845;48.120;11.534;2022-08-16T08:59:15;2.97;;;2.77;;
7607;SDS011;3845;48.120;11.534;2022-08-16T09:01:41;2.80;;;2.60;;
7607;SDS011;3845;48.120;11.534;2022-08-16T09:04:07;3.07;;;2.77;;
7607;SDS011;3845;48.120;11.534;2022-08-16T09:06:33;3.13;;;2.83;;
7607;SDS011;3845;48.120;11.534;2022-08-16T09:08:59;2.80;;;2.50;;
7607;SDS011;3845;48.120;11.534;2022-08-16T09:11:25;3.20;;;2.43;;
7607;SDS011;3845;48.120;11.534;2022-08-16T09:13:51;3.20;;;2.30;;
7607;SDS011;3845;48.120;11.534;2022-08-16T09:16:16;2.80;;;2.60;;
7607;SDS011;3845;48.120;11.534;2022-08-16T09:18:41;2.83;;;2.60;;
7607;SDS011;3845;48.120;11.534;2022-08-16T09:21:07;2.40;;;2.20;;
7607;SDS011;3845;48.120;11.534;2022-08-16T09:23:33;3.60;;;2.40;;
7607;SDS011;3845;48.120;11.534;2022-08-16T09:26:00;2.97;;;2.33;;
7607;SDS011;3845;48.120;11.534;2022-08-16T09:28:26;12.93;;;10.53;;
7607;SDS011;3845;48.120;11.534;2022-08-16T09:30:52;5.90;;;5.30;;
7607;SDS011;3845;48.120;11.534;2022-08-16T09:33:18;4.57;;;4.17;;
7607;SDS011;3845;48.120;11.534;2022-08-16T09:35:44;4.03;;;3.70;;
7607;SDS011;3845;48.120;11.534;2022-08-16T09:38:11;3.60;;;3.30;;
7607;SDS011;3845;48.120;11.534;2022-08-16T09:40:38;4.17;;;3.30;;
7607;SDS011;3845;48.120;11.534;2022-08-16T09:43:05;3.23;;;2.70;;
7607;SDS011;3845;48.120;11.534;2022-08-16T09:45:30;3.37;;;2.80;;
7607;SDS011;3845;48.120;11.534;2022-08-16T09:47:57;3.53;;;3.03;;
7607;SDS011;3845;48.120;11.534;2022-08-16T09:50:23;2.87;;;2.60;;
7607;SDS011;3845;48.120;11.534;2022-08-16T09:52:50;4.33;;;2.70;;
7607;SDS011;3845;48.120;11.534;2022-08-16T09:55:16;3.00;;;2.70;;
7607;SDS011;3845;48.120;11.534;2022-08-16T09:57:41;3.23;;;2.73;;
7607;SDS011;3845;48.120;11.534;2022-08-16T10:00:08;4.40;;;2.57;;
7607;SDS011;3845;48.120;11.534;2022-08-16T10:02:35;3.50;;;2.70;;
7607;SDS011;3845;48.120;11.534;2022-08-16T10:05:01;3.87;;;2.57;;
7607;SDS011;3845;48.120;11.534;2022-08-16T10:07:28;3.20;;;2.90;;
7607;SDS011;3845;48.120;11.534;2022-08-16T10:09:54;3.80;;;3.50;;
7607;SDS011;3845;48.120;11.534;2022-08-16T10:12:20;3.53;;;2.87;;
7607;SDS011;3845;48.120;11.534;2022-08-16T10:15:04;3.27;;;2.97;;
7607;SDS011;3845;48.120;11.534;2022-08-16T10:17:29;3.50;;;2.50;;
7607;SDS011;3845;48.120;11.534;2022-08-16T10:19:55;2.63;;;2.43;;
7607;SDS011;3845;48.120;11.534;2022-08-16T10:22:20;2.60;;;2.40;;
7607;SDS011;3845;48.120;11.534;2022-08-16T10:24:46;2.90;;;2.60;;
7607;SDS011;3845;48.120;11.534;2022-08-16T10:27:11;3.40;;;2.70;;
7607;SDS011;3845;48.120;11.534;2022-08-16T10:29:37;2.67;;;2.47;;
7607;SDS011;3845;48.120;11.534;2022-08-16T10:32:03;3.03;;;2.40;;
7607;SDS011;3845;48.120;11.534;2022-08-16T10:34:28;3.63;;;2.73;;
7607;SDS011;3845;48.120;11.534;2022-08-16T10:36:53;2.80;;;2.57;;
7607;SDS011;3845;48.120;11.534;2022-08-16T10:39:19;3.53;;;2.60;;
7607;SDS011;3845;48.120;11.534;2022-08-16T10:41:44;2.60;;;2.30;;
7607;SDS011;3845;48.120;11.534;2022-08-16T10:44:09;2.70;;;2.47;;
7607;SDS011;3845;48.120;11.534;2022-08-16T10:46:35;3.10;;;2.80;;
7607;SDS011;3845;48.120;11.534;2022-08-16T10:49:00;2.77;;;2.57;;
7607;SDS011;3845;48.120;11.534;2022-08-16T10:51:26;3.63;;;2.90;;
7607;SDS011;3845;48.120;11.534;2022-08-16T10:53:51;3.97;;;2.73;;
7607;SDS011;3845;48.120;11.534;2022-08-16T10:56:17;3.90;;;2.77;;
7607;SDS011;3845;48.120;11.534;2022-08-16T10:58:42;6.13;;;2.80;;
7607;SDS011;3845;48.120;11.534;2022-08-16T11:01:09;3.70;;;3.23;;
7607;SDS011;3845;48.120;11.534;2022-08-16T11:03:35;2.93;;;2.63;;
7607;SDS011;3845;48.120;11.534;2022-08-16T11:06:02;2.80;;;2.60;;
7607;SDS011;3845;48.120;11.534;2022-08-16T11:08:29;2.97;;;2.67;;
7607;SDS011;3845;48.120;11.534;2022-08-16T11:10:54;12.67;;;10.87;;
7607;SDS011;3845;48.120;11.534;2022-08-16T11:13:21;7.80;;;7.10;;
7607;SDS011;3845;48.120;11.534;2022-08-16T11:15:49;7.87;;;5.60;;
7607;SDS011;3845;48.120;11.534;2022-08-16T11:18:14;4.90;;;4.40;;
7607;SDS011;3845;48.120;11.534;2022-08-16T11:20:40;4.00;;;3.60;;
7607;SDS011;3845;48.120;11.534;2022-08-16T11:23:07;3.53;;;3.23;;
7607;SDS011;3845;48.120;11.534;2022-08-16T11:25:33;3.20;;;2.90;;
7607;SDS011;3845;48.120;11.534;2022-08-16T11:27:58;3.23;;;2.90;;
7607;SDS011;3845;48.120;11.534;2022-08-16T11:30:25;7.27;;;5.57;;
7607;SDS011;3845;48.120;11.534;2022-08-16T11:32:53;5.37;;;4.87;;
7607;SDS011;3845;48.120;11.534;2022-08-16T11:35:20;4.37;;;3.83;;
7607;SDS011;3845;48.120;11.534;2022-08-16T11:37:54;4.10;;;3.27;;
7607;SDS011;3845;48.120;11.534;2022-08-16T11:40:22;3.33;;;3.03;;
7607;SDS011;3845;48.120;11.534;2022-08-16T11:42:49;2.90;;;2.60;;
7607;SDS011;3845;48.120;11.534;2022-08-16T11:45:14;3.90;;;2.93;;
7607;SDS011;3845;48.120;11.534;2022-08-16T11:47:39;2.70;;;2.50;;
7607;SDS011;3845;48.120;11.534;2022-08-16T11:50:06;2.50;;;2.30;;
7607;SDS011;3845;48.120;11.534;2022-08-16T11:52:33;2.73;;;2.33;;
7607;SDS011;3845;48.120;11.534;2022-08-16T11:54:59;2.70;;;2.50;;
7607;SDS011;3845;48.120;11.534;2022-08-16T11:57:24;2.50;;;2.30;;
7607;SDS011;3845;48.120;11.534;2022-08-16T11:59:49;2.90;;;2.70;;
7607;SDS011;3845;48.120;11.534;2022-08-16T12:02:15;4.47;;;3.50;;
7607;SDS011;3845;48.120;11.534;2022-08-16T12:04:40;3.10;;;2.80;;
7607;SDS011;3845;48.120;11.534;2022-08-16T12:07:06;2.73;;;2.40;;
7607;SDS011;3845;48.120;11.534;2022-08-16T12:09:34;4.97;;;4.47;;
7607;SDS011;3845;48.120;11.534;2022-08-16T12:12:00;3.77;;;3.33;;
7607;SDS011;3845;48.120;11.534;2022-08-16T12:14:25;3.03;;;2.73;;
7607;SDS011;3845;48.120;11.534;2022-08-16T12:16:51;3.27;;;2.97;;
7607;SDS011;3845;48.120;11.534;2022-08-16T12:19:18;3.30;;;3.00;;
7607;SDS011;3845;48.120;11.534;2022-08-16T12:21:44;2.80;;;2.60;;
7607;SDS011;3845;48.120;11.534;2022-08-16T12:24:09;4.40;;;2.53;;
7607;SDS011;3845;48.120;11.534;2022-08-16T12:26:34;2.60;;;2.30;;
7607;SDS011;3845;48.120;11.534;2022-08-16T12:29:00;3.47;;;2.30;;
7607;SDS011;3845;48.120;11.534;2022-08-16T12:31:28;4.80;;;2.27;;
7607;SDS011;3845;48.120;11.534;2022-08-16T12:33:53;2.97;;;2.13;;
7607;SDS011;3845;48.120;11.534;2022-08-16T12:36:19;3.30;;;2.20;;
7607;SDS011;3845;48.120;11.534;2022-08-16T12:38:45;2.60;;;2.40;;
7607;SDS011;3845;48.120;11.534;2022-08-16T12:41:11;2.30;;;2.10;;
7607;SDS011;3845;48.120;11.534;2022-08-16T12:43:37;2.80;;;2.50;;
7607;SDS011;3845;48.120;11.534;2022-08-16T12:46:05;2.40;;;2.20;;
7607;SDS011;3845;48.120;11.534;2022-08-16T12:48:32;2.73;;;2.20;;
7607;SDS011;3845;48.120;11.534;2022-08-16T12:51:17;2.33;;;2.13;;
7607;SDS011;3845;48.120;11.534;2022-08-16T12:53:46;3.40;;;3.07;;
7607;SDS011;3845;48.120;11.534;2022-08-16T12:56:16;3.53;;;3.20;;
7607;SDS011;3845;48.120;11.534;2022-08-16T12:58:43;3.07;;;2.77;;
7607;SDS011;3845;48.120;11.534;2022-08-16T13:01:11;3.33;;;2.87;;
7607;SDS011;3845;48.120;11.534;2022-08-16T13:03:36;2.80;;;2.50;;
7607;SDS011;3845;48.120;11.534;2022-08-16T13:06:03;3.57;;;2.50;;
7607;SDS011;3845;48.120;11.534;2022-08-16T13:08:28;4.10;;;3.70;;
7607;SDS011;3845;48.120;11.534;2022-08-16T13:10:53;6.33;;;4.23;;
7607;SDS011;3845;48.120;11.534;2022-08-16T13:13:20;3.90;;;3.30;;
7607;SDS011;3845;48.120;11.534;2022-08-16T13:15:56;5.47;;;4.80;;
7607;SDS011;3845;48.120;11.534;2022-08-16T13:18:24;4.40;;;3.60;;
7607;SDS011;3845;48.120;11.534;2022-08-16T13:20:51;5.23;;;3.13;;
7607;SDS011;3845;48.120;11.534;2022-08-16T13:23:17;3.07;;;2.77;;
7607;SDS011;3845;48.120;11.534;2022-08-16T13:25:44;2.53;;;2.33;;
7607;SDS011;3845;48.120;11.534;2022-08-16T13:28:11;3.40;;;2.23;;
7607;SDS011;3845;48.120;11.534;2022-08-16T13:30:41;2.77;;;2.50;;
7607;SDS011;3845;48.120;11.534;2022-08-16T13:33:20;3.47;;;2.30;;
7607;SDS011;3845;48.120;11.534;2022-08-16T13:35:48;6.03;;;2.50;;
7607;SDS011;3845;48.120;11.534;2022-08-16T13:38:14;4.77;;;2.63;;
7607;SDS011;3845;48.120;11.534;2022-08-16T13:40:40;3.50;;;2.80;;
7607;SDS011;3845;48.120;11.534;2022-08-16T13:43:06;3.03;;;2.73;;
7607;SDS011;3845;48.120;11.534;2022-08-16T13:45:31;3.47;;;2.70;;
7607;SDS011;3845;48.120;11.534;2022-08-16T13:47:57;3.93;;;3.30;;
7607;SDS011;3845;48.120;11.534;2022-08-16T13:50:23;4.90;;;3.00;;
7607;SDS011;3845;48.120;11.534;2022-08-16T13:52:49;2.83;;;2.33;;
7607;SDS011;3845;48.120;11.534;2022-08-16T13:55:15;3.90;;;2.63;;
7607;SDS011;3845;48.120;11.534;2022-08-16T13:57:40;3.00;;;2.40;;
7607;SDS011;3845;48.120;11.534;2022-08-16T14:00:07;5.33;;;2.60;;
7607;SDS011;3845;48.120;11.534;2022-08-16T14:02:33;3.57;;;2.10;;
7607;SDS011;3845;48.120;11.534;2022-08-16T14:04:59;5.07;;;3.70;;
7607;SDS011;3845;48.120;11.534;2022-08-16T14:07:24;3.40;;;3.10;;
7607;SDS011;3845;48.120;11.534;2022-08-16T14:09:50;3.80;;;3.50;;
7607;SDS011;3845;48.120;11.534;2022-08-16T14:12:20;6.97;;;5.90;;
7607;SDS011;3845;48.120;11.534;2022-08-16T14:14:48;5.53;;;5.00;;
7607;SDS011;3845;48.120;11.534;2022-08-16T14:17:15;4.33;;;3.67;;
7607;SDS011;3845;48.120;11.534;2022-08-16T14:19:41;3.00;;;2.70;;
7607;SDS011;3845;48.120;11.534;2022-08-16T14:22:06;3.70;;;3.20;;
7607;SDS011;3845;48.120;11.534;2022-08-16T14:24:32;3.20;;;2.90;;
7607;SDS011;3845;48.120;11.534;2022-08-16T14:26:57;2.70;;;2.50;;
7607;SDS011;3845;48.120;11.534;2022-08-16T14:29:22;7.50;;;3.00;;
7607;SDS011;3845;48.120;11.534;2022-08-16T14:31:48;4.10;;;3.50;;
7607;SDS011;3845;48.120;11.534;2022-08-16T14:34:14;3.53;;;3.13;;
7607;SDS011;3845;48.120;11.534;2022-08-16T14:36:39;3.27;;;2.90;;
7607;SDS011;3845;48.120;11.534;2022-08-16T14:39:05;2.80;;;2.60;;
7607;SDS011;3845;48.120;11.534;2022-08-16T14:41:30;3.13;;;2.47;;
7607;SDS011;3845;48.120;11.534;2022-08-16T14:43:55;2.70;;;2.33;;
7607;SDS011;3845;48.120;11.534;2022-08-16T14:46:21;4.23;;;3.80;;
7607;SDS011;3845;48.120;11.534;2022-08-16T14:48:46;6.07;;;5.47;;
7607;SDS011;3845;48.120;11.534;2022-08-16T14:51:12;6.87;;;6.27;;
7607;SDS011;3845;48.120;11.534;2022-08-16T14:53:37;5.63;;;4.87;;
7607;SDS011;3845;48.120;11.534;2022-08-16T14:56:03;3.50;;;3.20;;